EJU46RV EHAM-EGPH
Flight info
| Callsign | EJU46RV |
|---|---|
| Flight time | 1h 6m |
| Altitude | 38000 |
| Route | BERGI L602 SUPUR P1 GODOS DCT ROXAT DCT BAZNA DCT ANMAZ DCT AGPED |
| Aircraft | A319/M-SDE3FGHIRWY/LB1 |
Departure
| Time | 2026-05-04 16:51 |
|---|---|
| Airport | Amsterdam Airport Schiphol (EHAM) |
Arrival
| Time | 2026-05-04 17:58 |
|---|---|
| Airport | Edinburgh Airport (EGPH) |
| Time | Latitude | Longitude | Altitude | Speed | Heading |
|---|---|---|---|---|---|
| 2026-05-04 16:04 | 52.30964 | 4.75301 | -1 ft | 0 kts | 148° |
| 2026-05-04 16:04 | 52.30964 | 4.75302 | -1 ft | 0 kts | 148° |
| 2026-05-04 16:31 | 52.30964 | 4.75301 | -1 ft | 0 kts | 148° |
| 2026-05-04 16:37 | 52.30982 | 4.75282 | -28 ft | 3 kts | 139° |
| 2026-05-04 16:37 | 52.30995 | 4.75259 | 6 ft | 3 kts | 105° |
| 2026-05-04 16:37 | 52.30996 | 4.75236 | -1 ft | 1 kts | 73° |
| 2026-05-04 16:39 | 52.31003 | 4.75253 | -1 ft | 3 kts | 51° |
| 2026-05-04 16:40 | 52.31054 | 4.75369 | -1 ft | 9 kts | 58° |
| 2026-05-04 16:40 | 52.31144 | 4.75498 | -1 ft | 10 kts | 1° |
| 2026-05-04 16:41 | 52.31304 | 4.75483 | -1 ft | 13 kts | 356° |
| 2026-05-04 16:41 | 52.31507 | 4.75324 | -1 ft | 14 kts | 266° |
| 2026-05-04 16:42 | 52.31491 | 4.74825 | -1 ft | 12 kts | 267° |
| 2026-05-04 16:43 | 52.31483 | 4.74602 | -1 ft | 9 kts | 267° |
| 2026-05-04 16:43 | 52.31474 | 4.74314 | -1 ft | 18 kts | 266° |
| 2026-05-04 16:43 | 52.31408 | 4.74146 | -1 ft | 20 kts | 198° |
| 2026-05-04 16:44 | 52.30747 | 4.74080 | -1 ft | 27 kts | 183° |
| 2026-05-04 16:45 | 52.30402 | 4.74048 | -1 ft | 18 kts | 184° |
| 2026-05-04 16:46 | 52.30259 | 4.73959 | -1 ft | 7 kts | 206° |
| 2026-05-04 16:46 | 52.30220 | 4.73913 | -1 ft | 0 kts | 218° |
| 2026-05-04 16:49 | 52.30205 | 4.73892 | -1 ft | 4 kts | 223° |
| 2026-05-04 16:50 | 52.30192 | 4.73757 | -2 ft | 8 kts | 277° |
| 2026-05-04 16:50 | 52.30218 | 4.73742 | -2 ft | 0 kts | 1° |
| 2026-05-04 16:51 | 52.30268 | 4.73744 | -4 ft | 29 kts | 2° |
| 2026-05-04 16:51 | 52.30758 | 4.73789 | 0 ft | 108 kts | 3° |
| 2026-05-04 16:51 | 52.32679 | 4.73947 | 1036 ft | 144 kts | 354° |
| 2026-05-04 16:52 | 52.34979 | 4.73491 | 1923 ft | 185 kts | 348° |
| 2026-05-04 16:52 | 52.36317 | 4.73089 | 2353 ft | 207 kts | 343° |
| 2026-05-04 16:53 | 52.39464 | 4.71829 | 3352 ft | 256 kts | 342° |
| 2026-05-04 16:53 | 52.44898 | 4.69595 | 6228 ft | 275 kts | 343° |
| 2026-05-04 16:54 | 52.46759 | 4.68787 | 7186 ft | 278 kts | 338° |
| 2026-05-04 16:55 | 52.52694 | 4.60480 | 10491 ft | 305 kts | 313° |
| 2026-05-04 16:55 | 52.55847 | 4.55456 | 11933 ft | 322 kts | 312° |
| 2026-05-04 16:56 | 52.59133 | 4.50222 | 13604 ft | 332 kts | 312° |
| 2026-05-04 16:56 | 52.64201 | 4.42144 | 15792 ft | 345 kts | 311° |
| 2026-05-04 16:57 | 52.65933 | 4.39378 | 16511 ft | 349 kts | 311° |
| 2026-05-04 16:57 | 52.68847 | 4.34703 | 17689 ft | 356 kts | 311° |
| 2026-05-04 16:58 | 52.74255 | 4.26006 | 19598 ft | 368 kts | 311° |
| 2026-05-04 16:58 | 52.76699 | 4.22063 | 20413 ft | 373 kts | 311° |
| 2026-05-04 16:59 | 52.79833 | 4.16995 | 21454 ft | 379 kts | 311° |
| 2026-05-04 17:00 | 52.87512 | 4.04559 | 23889 ft | 393 kts | 311° |
| 2026-05-04 17:00 | 52.93424 | 3.94921 | 25373 ft | 403 kts | 311° |
| 2026-05-04 17:01 | 52.97446 | 3.88340 | 26320 ft | 410 kts | 311° |
| 2026-05-04 17:01 | 53.01538 | 3.81636 | 27221 ft | 417 kts | 311° |
| 2026-05-04 17:02 | 53.05706 | 3.74792 | 28090 ft | 425 kts | 310° |
| 2026-05-04 17:02 | 53.09939 | 3.67816 | 28937 ft | 432 kts | 310° |
| 2026-05-04 17:03 | 53.12077 | 3.64280 | 29350 ft | 436 kts | 310° |
| 2026-05-04 17:03 | 53.14233 | 3.60708 | 29758 ft | 439 kts | 310° |
| 2026-05-04 17:03 | 53.18604 | 3.53452 | 30497 ft | 446 kts | 310° |
| 2026-05-04 17:04 | 53.23021 | 3.46093 | 31227 ft | 451 kts | 310° |
| 2026-05-04 17:04 | 53.26836 | 3.37959 | 32073 ft | 441 kts | 297° |
| 2026-05-04 17:05 | 53.30136 | 3.29381 | 33128 ft | 437 kts | 297° |
| 2026-05-04 17:05 | 53.33416 | 3.20870 | 34161 ft | 433 kts | 298° |
| 2026-05-04 17:06 | 53.36666 | 3.12412 | 34975 ft | 431 kts | 298° |
| 2026-05-04 17:06 | 53.38280 | 3.08197 | 35337 ft | 430 kts | 298° |
| 2026-05-04 17:07 | 53.41500 | 2.99757 | 36024 ft | 429 kts | 298° |
| 2026-05-04 17:07 | 53.42562 | 2.96969 | 36240 ft | 429 kts | 298° |
| 2026-05-04 17:07 | 53.44707 | 2.91315 | 36672 ft | 429 kts | 298° |
| 2026-05-04 17:07 | 53.46306 | 2.87096 | 36985 ft | 429 kts | 298° |
| 2026-05-04 17:08 | 53.47903 | 2.82874 | 37299 ft | 428 kts | 298° |
| 2026-05-04 17:08 | 53.51095 | 2.74423 | 37860 ft | 428 kts | 298° |
| 2026-05-04 17:08 | 53.52693 | 2.70181 | 38025 ft | 431 kts | 298° |
| 2026-05-04 17:09 | 53.54298 | 2.65907 | 38050 ft | 433 kts | 298° |
| 2026-05-04 17:09 | 53.57510 | 2.57328 | 38051 ft | 434 kts | 298° |
| 2026-05-04 17:10 | 53.65540 | 2.35795 | 38048 ft | 434 kts | 298° |
| 2026-05-04 17:11 | 53.68742 | 2.27156 | 38059 ft | 435 kts | 298° |
| 2026-05-04 17:12 | 53.73539 | 2.14142 | 38069 ft | 435 kts | 298° |
| 2026-05-04 17:13 | 53.81514 | 1.92388 | 38073 ft | 435 kts | 298° |
| 2026-05-04 17:14 | 53.87860 | 1.74912 | 38072 ft | 435 kts | 298° |
| 2026-05-04 17:15 | 53.92607 | 1.61771 | 38078 ft | 436 kts | 298° |
| 2026-05-04 17:16 | 53.98916 | 1.44205 | 38077 ft | 436 kts | 298° |
| 2026-05-04 17:17 | 54.05194 | 1.26590 | 38075 ft | 435 kts | 298° |
| 2026-05-04 17:18 | 54.11448 | 1.08917 | 38080 ft | 435 kts | 298° |
| 2026-05-04 17:19 | 54.17676 | 0.91208 | 38075 ft | 435 kts | 298° |
| 2026-05-04 17:20 | 54.23861 | 0.73443 | 38074 ft | 435 kts | 298° |
| 2026-05-04 17:20 | 54.28517 | 0.60039 | 38067 ft | 435 kts | 298° |
| 2026-05-04 17:21 | 54.34665 | 0.42188 | 38070 ft | 435 kts | 298° |
| 2026-05-04 17:22 | 54.37730 | 0.33254 | 38065 ft | 435 kts | 298° |
| 2026-05-04 17:23 | 54.43827 | 0.15349 | 38056 ft | 434 kts | 298° |
| 2026-05-04 17:24 | 54.48378 | 0.01888 | 38063 ft | 434 kts | 298° |
| 2026-05-04 17:25 | 54.54383 | -0.15930 | 38050 ft | 428 kts | 299° |
| 2026-05-04 17:26 | 54.60311 | -0.33694 | 37978 ft | 427 kts | 299° |
| 2026-05-04 17:26 | 54.64718 | -0.46985 | 37116 ft | 424 kts | 299° |
| 2026-05-04 17:27 | 54.67633 | -0.55846 | 36579 ft | 424 kts | 299° |
| 2026-05-04 17:27 | 54.70548 | -0.64700 | 36072 ft | 424 kts | 299° |
| 2026-05-04 17:28 | 54.73459 | -0.73555 | 35556 ft | 423 kts | 300° |
| 2026-05-04 17:29 | 54.77777 | -0.86765 | 34802 ft | 417 kts | 299° |
| 2026-05-04 17:29 | 54.81987 | -0.99752 | 33625 ft | 406 kts | 299° |
| 2026-05-04 17:30 | 54.86083 | -1.12427 | 32108 ft | 396 kts | 299° |
| 2026-05-04 17:31 | 54.88745 | -1.20713 | 31130 ft | 390 kts | 299° |
| 2026-05-04 17:31 | 54.92666 | -1.32944 | 29736 ft | 382 kts | 299° |
| 2026-05-04 17:32 | 54.95223 | -1.40964 | 28800 ft | 376 kts | 298° |
| 2026-05-04 17:33 | 54.98569 | -1.51504 | 28076 ft | 372 kts | 298° |
| 2026-05-04 17:33 | 54.99813 | -1.55434 | 27804 ft | 370 kts | 298° |
| 2026-05-04 17:34 | 55.03500 | -1.67142 | 27022 ft | 364 kts | 298° |
| 2026-05-04 17:34 | 55.04715 | -1.71001 | 26761 ft | 363 kts | 298° |
| 2026-05-04 17:35 | 55.08323 | -1.82493 | 26003 ft | 357 kts | 298° |
| 2026-05-04 17:35 | 55.10696 | -1.90088 | 26019 ft | 357 kts | 298° |
| 2026-05-04 17:35 | 55.11880 | -1.93900 | 26024 ft | 357 kts | 298° |
| 2026-05-04 17:36 | 55.13073 | -1.97717 | 25726 ft | 361 kts | 298° |
| 2026-05-04 17:36 | 55.14322 | -2.01558 | 25108 ft | 364 kts | 299° |
| 2026-05-04 17:36 | 55.15595 | -2.05380 | 24584 ft | 364 kts | 300° |
| 2026-05-04 17:36 | 55.16873 | -2.09191 | 24064 ft | 364 kts | 300° |
| 2026-05-04 17:37 | 55.18154 | -2.13018 | 23529 ft | 364 kts | 299° |
| 2026-05-04 17:37 | 55.19427 | -2.16849 | 22949 ft | 363 kts | 299° |
| 2026-05-04 17:37 | 55.20685 | -2.20662 | 22437 ft | 361 kts | 299° |
| 2026-05-04 17:37 | 55.21933 | -2.24467 | 21924 ft | 359 kts | 299° |
| 2026-05-04 17:38 | 55.23167 | -2.28248 | 21401 ft | 357 kts | 299° |
| 2026-05-04 17:38 | 55.24398 | -2.32030 | 20940 ft | 354 kts | 299° |
| 2026-05-04 17:38 | 55.25611 | -2.35769 | 20425 ft | 353 kts | 298° |
| 2026-05-04 17:38 | 55.26813 | -2.39479 | 20050 ft | 347 kts | 298° |
| 2026-05-04 17:39 | 55.29121 | -2.46608 | 19731 ft | 325 kts | 299° |
| 2026-05-04 17:39 | 55.30230 | -2.50031 | 19410 ft | 320 kts | 299° |
| 2026-05-04 17:39 | 55.31325 | -2.53413 | 19055 ft | 317 kts | 299° |
| 2026-05-04 17:40 | 55.32409 | -2.56765 | 18699 ft | 315 kts | 299° |
| 2026-05-04 17:40 | 55.33499 | -2.60143 | 18008 ft | 322 kts | 299° |
| 2026-05-04 17:40 | 55.34615 | -2.63608 | 17341 ft | 327 kts | 299° |
| 2026-05-04 17:40 | 55.35735 | -2.67084 | 16858 ft | 327 kts | 299° |
| 2026-05-04 17:41 | 55.36849 | -2.70552 | 16465 ft | 323 kts | 298° |
| 2026-05-04 17:41 | 55.37931 | -2.73927 | 16312 ft | 310 kts | 298° |
| 2026-05-04 17:41 | 55.38973 | -2.77178 | 15957 ft | 303 kts | 298° |
| 2026-05-04 17:41 | 55.40001 | -2.80393 | 15520 ft | 300 kts | 298° |
| 2026-05-04 17:42 | 55.41022 | -2.83576 | 15075 ft | 297 kts | 300° |
| 2026-05-04 17:42 | 55.42334 | -2.86339 | 14602 ft | 297 kts | 319° |
| 2026-05-04 17:42 | 55.44103 | -2.88215 | 14093 ft | 297 kts | 330° |
| 2026-05-04 17:42 | 55.45928 | -2.89901 | 13577 ft | 296 kts | 330° |
| 2026-05-04 17:43 | 55.47748 | -2.91576 | 13035 ft | 293 kts | 330° |
| 2026-05-04 17:43 | 55.49549 | -2.93230 | 12502 ft | 291 kts | 330° |
| 2026-05-04 17:43 | 55.51340 | -2.94877 | 11988 ft | 289 kts | 329° |
| 2026-05-04 17:43 | 55.53108 | -2.96511 | 11516 ft | 284 kts | 329° |
| 2026-05-04 17:44 | 55.54850 | -2.98127 | 11035 ft | 282 kts | 329° |
| 2026-05-04 17:44 | 55.56581 | -2.99736 | 10533 ft | 280 kts | 329° |
| 2026-05-04 17:44 | 55.58294 | -3.01332 | 10014 ft | 278 kts | 329° |
| 2026-05-04 17:44 | 55.60001 | -3.02922 | 9477 ft | 276 kts | 329° |
| 2026-05-04 17:45 | 55.61694 | -3.04499 | 9065 ft | 274 kts | 329° |
| 2026-05-04 17:45 | 55.63376 | -3.06065 | 8682 ft | 272 kts | 329° |
| 2026-05-04 17:45 | 55.65049 | -3.07622 | 8259 ft | 271 kts | 329° |
| 2026-05-04 17:45 | 55.66711 | -3.09172 | 7838 ft | 269 kts | 329° |
| 2026-05-04 17:46 | 55.68366 | -3.10715 | 7440 ft | 268 kts | 329° |
| 2026-05-04 17:46 | 55.70006 | -3.12245 | 7146 ft | 263 kts | 329° |
| 2026-05-04 17:46 | 55.71595 | -3.13726 | 7019 ft | 252 kts | 329° |
| 2026-05-04 17:46 | 55.73177 | -3.14942 | 6791 ft | 248 kts | 345° |
| 2026-05-04 17:47 | 55.74897 | -3.14778 | 6476 ft | 253 kts | 16° |
| 2026-05-04 17:47 | 55.76506 | -3.13494 | 6215 ft | 254 kts | 24° |
| 2026-05-04 17:47 | 55.78072 | -3.12060 | 6032 ft | 253 kts | 24° |
| 2026-05-04 17:47 | 55.79629 | -3.10607 | 6009 ft | 252 kts | 24° |
| 2026-05-04 17:48 | 55.81177 | -3.09159 | 5952 ft | 251 kts | 25° |
| 2026-05-04 17:48 | 55.82713 | -3.07716 | 5602 ft | 248 kts | 24° |
| 2026-05-04 17:48 | 55.84230 | -3.06277 | 5268 ft | 246 kts | 25° |
| 2026-05-04 17:48 | 55.85726 | -3.04854 | 5031 ft | 242 kts | 25° |
| 2026-05-04 17:49 | 55.87226 | -3.03498 | 4999 ft | 241 kts | 17° |
| 2026-05-04 17:49 | 55.88815 | -3.02680 | 5002 ft | 232 kts | 10° |
| 2026-05-04 17:49 | 55.90370 | -3.02012 | 5005 ft | 229 kts | 10° |
| 2026-05-04 17:49 | 55.91923 | -3.01358 | 5008 ft | 229 kts | 9° |
| 2026-05-04 17:50 | 55.93479 | -3.00711 | 5005 ft | 230 kts | 9° |
| 2026-05-04 17:50 | 55.95033 | -3.00068 | 4968 ft | 228 kts | 9° |
| 2026-05-04 17:50 | 55.96572 | -2.99431 | 4690 ft | 226 kts | 10° |
| 2026-05-04 17:50 | 55.98107 | -2.98808 | 4487 ft | 226 kts | 9° |
| 2026-05-04 17:51 | 55.99640 | -2.98181 | 4308 ft | 226 kts | 9° |
| 2026-05-04 17:51 | 56.01174 | -2.97548 | 4123 ft | 226 kts | 9° |
| 2026-05-04 17:51 | 56.02697 | -2.96998 | 3958 ft | 218 kts | 360° |
| 2026-05-04 17:51 | 56.04103 | -2.97558 | 3803 ft | 202 kts | 333° |
| 2026-05-04 17:52 | 56.05333 | -2.98676 | 3647 ft | 196 kts | 324° |
| 2026-05-04 17:52 | 56.06189 | -3.00487 | 3503 ft | 192 kts | 293° |
| 2026-05-04 17:52 | 56.06363 | -3.02839 | 3344 ft | 195 kts | 262° |
| 2026-05-04 17:52 | 56.05829 | -3.05073 | 3207 ft | 198 kts | 242° |
| 2026-05-04 17:53 | 56.05113 | -3.07192 | 3108 ft | 198 kts | 242° |
| 2026-05-04 17:53 | 56.04403 | -3.09302 | 3015 ft | 197 kts | 242° |
| 2026-05-04 17:53 | 56.03693 | -3.11422 | 2999 ft | 197 kts | 242° |
| 2026-05-04 17:53 | 56.02986 | -3.13531 | 2952 ft | 196 kts | 242° |
| 2026-05-04 17:54 | 56.02293 | -3.15599 | 2755 ft | 192 kts | 242° |
| 2026-05-04 17:54 | 56.01606 | -3.17644 | 2506 ft | 191 kts | 242° |
| 2026-05-04 17:54 | 56.00925 | -3.19671 | 2250 ft | 190 kts | 242° |
| 2026-05-04 17:54 | 56.00259 | -3.21650 | 1994 ft | 182 kts | 242° |
| 2026-05-04 17:55 | 55.99628 | -3.23523 | 1771 ft | 171 kts | 241° |
| 2026-05-04 17:55 | 55.99037 | -3.25279 | 1524 ft | 160 kts | 242° |
| 2026-05-04 17:55 | 55.98479 | -3.26934 | 1313 ft | 151 kts | 242° |
| 2026-05-04 17:55 | 55.97960 | -3.28474 | 1101 ft | 139 kts | 242° |
| 2026-05-04 17:56 | 55.97476 | -3.29909 | 911 ft | 132 kts | 242° |
| 2026-05-04 17:56 | 55.97010 | -3.31291 | 733 ft | 129 kts | 242° |
| 2026-05-04 17:56 | 55.96552 | -3.32659 | 547 ft | 127 kts | 243° |
| 2026-05-04 17:56 | 55.96092 | -3.34024 | 382 ft | 128 kts | 241° |
| 2026-05-04 17:57 | 55.95629 | -3.35389 | 209 ft | 128 kts | 241° |
| 2026-05-04 17:57 | 55.95182 | -3.36724 | 114 ft | 117 kts | 239° |
| 2026-05-04 17:57 | 55.94836 | -3.37737 | 114 ft | 71 kts | 239° |
| 2026-05-04 17:57 | 55.94616 | -3.38384 | 112 ft | 56 kts | 238° |
| 2026-05-04 17:58 | 55.94454 | -3.38862 | 114 ft | 28 kts | 239° |
| 2026-05-04 17:58 | 55.94362 | -3.38950 | 113 ft | 10 kts | 150° |
| 2026-05-04 17:58 | 55.94306 | -3.38888 | 113 ft | 10 kts | 148° |
| 2026-05-04 17:58 | 55.94282 | -3.38794 | 116 ft | 10 kts | 70° |
| 2026-05-04 17:59 | 55.94299 | -3.38744 | 115 ft | 0 kts | 58° |
| 2026-05-04 18:03 | 55.94301 | -3.38739 | 113 ft | 2 kts | 58° |
| 2026-05-04 18:03 | 55.94318 | -3.38689 | 115 ft | 7 kts | 59° |
| 2026-05-04 18:04 | 55.94352 | -3.38585 | 116 ft | 12 kts | 59° |
| 2026-05-04 18:04 | 55.94402 | -3.38441 | 113 ft | 14 kts | 58° |
| 2026-05-04 18:04 | 55.94511 | -3.38120 | 113 ft | 16 kts | 59° |
| 2026-05-04 18:05 | 55.94570 | -3.37943 | 114 ft | 17 kts | 59° |
| 2026-05-04 18:05 | 55.94634 | -3.37757 | 114 ft | 18 kts | 59° |
| 2026-05-04 18:05 | 55.94701 | -3.37560 | 115 ft | 19 kts | 59° |
| 2026-05-04 18:05 | 55.94772 | -3.37353 | 116 ft | 20 kts | 59° |
| 2026-05-04 18:06 | 55.94912 | -3.36936 | 116 ft | 18 kts | 59° |
| 2026-05-04 18:06 | 55.94901 | -3.36809 | 116 ft | 10 kts | 147° |
| 2026-05-04 18:06 | 55.94841 | -3.36779 | 116 ft | 9 kts | 179° |
| 2026-05-04 18:07 | 55.94779 | -3.36773 | 116 ft | 8 kts | 166° |
| 2026-05-04 18:07 | 55.94736 | -3.36740 | 116 ft | 6 kts | 168° |
| 2026-05-04 18:07 | 55.94704 | -3.36721 | 115 ft | 4 kts | 123° |
| 2026-05-04 18:07 | 55.94701 | -3.36683 | 116 ft | 4 kts | 92° |
| 2026-05-04 18:08 | 55.94702 | -3.36632 | 116 ft | 4 kts | 89° |
| 2026-05-04 18:08 | 55.94702 | -3.36603 | 116 ft | 1 kts | 89° |
| 2026-05-04 18:08 | 55.94702 | -3.36602 | 116 ft | 0 kts | 89° |
| 2026-05-04 18:13 | 55.94702 | -3.36601 | 117 ft | 0 kts | 89° |